East Lincoln, Mississippi
Current Conditions -  °F | °C
As of 5:15 PM on Friday 31 Oct 2014 (Local Time) from K1R7 Reporting Station
Clear Clear  
Wind Chill: 64°   Ceiling: Unl
Heat Index: 64°   Visibility: 10mi
Dew Point: 46°   Wind: 14mph
Humidity: 52%   Direction: 320°NW
Pressure: 30.11"   Gusts: 18mph
Location:  31.5898°N, 90.4722°W
Report Text: K1R7 312215Z AUTO 32012G16KT 10SM CLR 18/08 A3011 RMK AO2
Loading
Personal Weather Stations






























Interactive Weather Map
Tropical Storm Tracking
New forecast layout! Learn more

10-Day Weather Forecast

Advertisements
Track Severe Weather on mobile